TAF Text Data
IDs:
Format:
Raw Decoded Include METAR

Data at: 0121 UTC 29 Nov 2020

KPSM 282320Z 2900/2924 27004KT P6SM FEW060